Airfield :
LOGIN :

Register | Disclaimer

   EN    FR    IT 

 










Legend :    VFR   Marginal VFR   IFR   Intensive IFR   Very Intensive IFR
Visi :
Ceiling :
>= 8 km
>= 3000ft
5 to 8 km
1000 to 3000 ft
1500m to 5 km
500 to 1000 ft
800 to 1500m
200 to 500 ft
< 800m
< 200 ft
Symbols :   Thunderstorms  Fog  Heavy snow  Heavy precipitations  Wind > 20 kt
SIGMETs :     Misc.  Thunderstorms  Icing  Turbulence  Mountain Waves  Volcanic Ashes






- Airport Elevation : 622 ft
- IATA code : BRS


EGGD - Bristol Int.

CURRENT METAR :
  • 280620Z AUTO 21004KT 9999 OVC003 06/06 Q1018

EXPIRED METARs :
  • 280550Z AUTO 23004KT 9999 OVC004 06/06 Q1018
  • 280520Z AUTO 23004KT 9999 BKN004 OVC007 06/06 Q1018
  • 280450Z AUTO 23005KT 9999 OVC005 07/06 Q1018
  • 280420Z AUTO 23005KT 9000 SCT002 OVC006 07/07 Q1019
  • 280350Z AUTO 22004KT 9999 FEW006 OVC009 07/07 Q1019
  • 280320Z AUTO 22004KT 190V260 3000 BR BKN001 OVC009 07/07 Q1019
  • 280250Z AUTO 23004KT 200V270 0500 FG VV/// 07/07 Q1019
  • 280220Z AUTO 22006KT 0250 FG VV/// 07/07 Q1019
  • 280150Z AUTO 22004KT 0050 FG VV/// 07/07 Q1019

TAF TAF EGGD
Valid from the 28 at 06:00 until the 29 at 06:00 UTC


280500Z 2806/2906 26005KT 9999 SCT010
BECMG 2806/2809 19012KT
PROB30
TEMPO 2806/2808 0300 FG OVC001
PROB30
TEMPO 2808/2810 4000 BR BKN004
PROB30
TEMPO 2810/2812 6000 RA -RADZ BKN013
BECMG 2812/2815 OVC006
TEMPO 2812/2822 4000 RADZ BKN003
TEMPO 2822/2906 20016G26KT 6000 RA
PROB30
TEMPO 2901/2906 4000 +RA RADZ BKN004
ATIS : +44 1275 473 666



MET'MAP, your aeronautical weather chart ! - Copyright ORBIFLY December 2007 - Disclaimer

ORBIFLY MET'MAP TEAM :

Programming & Development : Alexandra Zaïnal
Original concept : Baudouin d'Aumeries
Technical & hardware support : Manuel Goepfert
Assistance : Marc-Olivier Méhu




SOURCES & CREDITS :

   NOAA